sensor_id;sensor_type;location;lat;lon;timestamp;P1;durP1;ratioP1;P2;durP2;ratioP2
12956;SDS011;6543;48.836;10.092;2022-12-18T00:00:12;51.60;;;29.03;;
12956;SDS011;6543;48.836;10.092;2022-12-18T00:02:39;47.67;;;26.77;;
12956;SDS011;6543;48.836;10.092;2022-12-18T00:05:08;54.00;;;29.70;;
12956;SDS011;6543;48.836;10.092;2022-12-18T00:07:35;49.97;;;28.83;;
12956;SDS011;6543;48.836;10.092;2022-12-18T00:10:02;53.60;;;30.13;;
12956;SDS011;6543;48.836;10.092;2022-12-18T00:12:29;53.47;;;31.60;;
12956;SDS011;6543;48.836;10.092;2022-12-18T00:14:56;48.83;;;27.20;;
12956;SDS011;6543;48.836;10.092;2022-12-18T00:17:23;59.17;;;32.93;;
12956;SDS011;6543;48.836;10.092;2022-12-18T00:19:50;55.50;;;29.23;;
12956;SDS011;6543;48.836;10.092;2022-12-18T00:22:18;59.63;;;33.17;;
12956;SDS011;6543;48.836;10.092;2022-12-18T00:24:45;64.80;;;35.77;;
12956;SDS011;6543;48.836;10.092;2022-12-18T00:27:11;58.90;;;31.20;;
12956;SDS011;6543;48.836;10.092;2022-12-18T00:29:41;59.83;;;33.53;;
12956;SDS011;6543;48.836;10.092;2022-12-18T00:32:08;52.93;;;30.07;;
12956;SDS011;6543;48.836;10.092;2022-12-18T00:34:35;60.10;;;29.03;;
12956;SDS011;6543;48.836;10.092;2022-12-18T00:37:02;46.23;;;25.97;;
12956;SDS011;6543;48.836;10.092;2022-12-18T00:39:30;52.30;;;30.87;;
12956;SDS011;6543;48.836;10.092;2022-12-18T00:41:57;59.47;;;31.87;;
12956;SDS011;6543;48.836;10.092;2022-12-18T00:44:41;50.47;;;28.87;;
12956;SDS011;6543;48.836;10.092;2022-12-18T00:47:08;47.17;;;26.03;;
12956;SDS011;6543;48.836;10.092;2022-12-18T00:49:35;62.23;;;32.83;;
12956;SDS011;6543;48.836;10.092;2022-12-18T00:52:02;51.07;;;28.90;;
12956;SDS011;6543;48.836;10.092;2022-12-18T00:54:30;56.83;;;31.07;;
12956;SDS011;6543;48.836;10.092;2022-12-18T00:56:57;44.93;;;24.10;;
12956;SDS011;6543;48.836;10.092;2022-12-18T00:59:23;51.17;;;30.33;;
12956;SDS011;6543;48.836;10.092;2022-12-18T01:01:50;59.33;;;30.63;;
12956;SDS011;6543;48.836;10.092;2022-12-18T01:04:17;44.97;;;24.87;;
12956;SDS011;6543;48.836;10.092;2022-12-18T01:06:44;58.60;;;29.20;;
12956;SDS011;6543;48.836;10.092;2022-12-18T01:09:12;57.03;;;30.03;;
12956;SDS011;6543;48.836;10.092;2022-12-18T01:11:41;48.03;;;27.73;;
12956;SDS011;6543;48.836;10.092;2022-12-18T01:14:08;52.43;;;29.03;;
12956;SDS011;6543;48.836;10.092;2022-12-18T01:16:35;53.13;;;25.90;;
12956;SDS011;6543;48.836;10.092;2022-12-18T01:19:01;44.70;;;24.03;;
12956;SDS011;6543;48.836;10.092;2022-12-18T01:21:28;46.70;;;24.80;;
12956;SDS011;6543;48.836;10.092;2022-12-18T01:23:55;46.40;;;25.80;;
12956;SDS011;6543;48.836;10.092;2022-12-18T01:26:23;56.60;;;34.93;;
12956;SDS011;6543;48.836;10.092;2022-12-18T01:28:53;48.43;;;23.90;;
12956;SDS011;6543;48.836;10.092;2022-12-18T01:31:21;47.43;;;30.47;;
12956;SDS011;6543;48.836;10.092;2022-12-18T01:33:49;51.23;;;28.30;;
12956;SDS011;6543;48.836;10.092;2022-12-18T01:36:17;47.63;;;25.10;;
12956;SDS011;6543;48.836;10.092;2022-12-18T01:38:45;54.57;;;27.80;;
12956;SDS011;6543;48.836;10.092;2022-12-18T01:41:13;46.77;;;28.80;;
12956;SDS011;6543;48.836;10.092;2022-12-18T01:43:42;53.73;;;29.40;;
12956;SDS011;6543;48.836;10.092;2022-12-18T01:46:16;53.53;;;25.90;;
12956;SDS011;6543;48.836;10.092;2022-12-18T01:48:44;44.13;;;23.87;;
12956;SDS011;6543;48.836;10.092;2022-12-18T01:51:12;42.60;;;24.70;;
12956;SDS011;6543;48.836;10.092;2022-12-18T01:53:40;47.17;;;28.07;;
12956;SDS011;6543;48.836;10.092;2022-12-18T01:56:11;42.23;;;21.87;;
12956;SDS011;6543;48.836;10.092;2022-12-18T01:58:42;37.73;;;19.27;;
12956;SDS011;6543;48.836;10.092;2022-12-18T02:01:16;45.97;;;23.83;;
12956;SDS011;6543;48.836;10.092;2022-12-18T02:03:44;42.83;;;21.17;;
12956;SDS011;6543;48.836;10.092;2022-12-18T02:06:13;48.90;;;22.53;;
12956;SDS011;6543;48.836;10.092;2022-12-18T02:08:45;46.73;;;24.03;;
12956;SDS011;6543;48.836;10.092;2022-12-18T02:11:24;37.30;;;22.83;;
12956;SDS011;6543;48.836;10.092;2022-12-18T02:14:01;32.17;;;18.37;;
12956;SDS011;6543;48.836;10.092;2022-12-18T02:16:42;39.83;;;21.50;;
12956;SDS011;6543;48.836;10.092;2022-12-18T02:19:21;41.37;;;22.67;;
12956;SDS011;6543;48.836;10.092;2022-12-18T02:22:14;48.23;;;24.37;;
12956;SDS011;6543;48.836;10.092;2022-12-18T02:24:54;36.73;;;20.43;;
12956;SDS011;6543;48.836;10.092;2022-12-18T02:27:30;41.90;;;20.40;;
12956;SDS011;6543;48.836;10.092;2022-12-18T02:29:59;44.70;;;21.67;;
12956;SDS011;6543;48.836;10.092;2022-12-18T02:32:28;46.40;;;23.83;;
12956;SDS011;6543;48.836;10.092;2022-12-18T02:34:59;39.33;;;20.80;;
12956;SDS011;6543;48.836;10.092;2022-12-18T02:37:29;34.13;;;16.73;;
12956;SDS011;6543;48.836;10.092;2022-12-18T02:39:58;20.73;;;11.47;;
12956;SDS011;6543;48.836;10.092;2022-12-18T02:42:26;34.20;;;18.73;;
12956;SDS011;6543;48.836;10.092;2022-12-18T02:44:55;32.83;;;15.43;;
12956;SDS011;6543;48.836;10.092;2022-12-18T02:47:23;27.60;;;13.80;;
12956;SDS011;6543;48.836;10.092;2022-12-18T02:49:55;32.07;;;17.67;;
12956;SDS011;6543;48.836;10.092;2022-12-18T02:52:29;37.97;;;18.87;;
12956;SDS011;6543;48.836;10.092;2022-12-18T02:55:05;34.23;;;17.57;;
12956;SDS011;6543;48.836;10.092;2022-12-18T02:57:40;33.27;;;18.37;;
12956;SDS011;6543;48.836;10.092;2022-12-18T03:00:14;28.90;;;15.10;;
12956;SDS011;6543;48.836;10.092;2022-12-18T03:02:45;31.07;;;17.80;;
12956;SDS011;6543;48.836;10.092;2022-12-18T03:05:15;29.67;;;17.67;;
12956;SDS011;6543;48.836;10.092;2022-12-18T03:07:46;30.87;;;16.73;;
12956;SDS011;6543;48.836;10.092;2022-12-18T03:10:18;24.77;;;15.00;;
12956;SDS011;6543;48.836;10.092;2022-12-18T03:12:50;37.43;;;20.17;;
12956;SDS011;6543;48.836;10.092;2022-12-18T03:15:22;28.13;;;17.37;;
12956;SDS011;6543;48.836;10.092;2022-12-18T03:17:55;29.40;;;17.00;;
12956;SDS011;6543;48.836;10.092;2022-12-18T03:20:26;23.20;;;12.90;;
12956;SDS011;6543;48.836;10.092;2022-12-18T03:22:59;29.67;;;15.83;;
12956;SDS011;6543;48.836;10.092;2022-12-18T03:25:29;28.27;;;13.70;;
12956;SDS011;6543;48.836;10.092;2022-12-18T03:27:58;24.33;;;10.87;;
12956;SDS011;6543;48.836;10.092;2022-12-18T03:30:30;31.80;;;16.40;;
12956;SDS011;6543;48.836;10.092;2022-12-18T03:33:01;27.07;;;15.07;;
12956;SDS011;6543;48.836;10.092;2022-12-18T03:35:35;20.30;;;10.77;;
12956;SDS011;6543;48.836;10.092;2022-12-18T03:38:05;21.70;;;10.03;;
12956;SDS011;6543;48.836;10.092;2022-12-18T03:40:34;30.47;;;13.03;;
12956;SDS011;6543;48.836;10.092;2022-12-18T03:43:07;23.37;;;11.10;;
12956;SDS011;6543;48.836;10.092;2022-12-18T03:45:41;28.07;;;14.80;;
12956;SDS011;6543;48.836;10.092;2022-12-18T03:48:16;35.70;;;17.17;;
12956;SDS011;6543;48.836;10.092;2022-12-18T03:50:46;23.27;;;12.60;;
12956;SDS011;6543;48.836;10.092;2022-12-18T03:53:22;24.63;;;11.77;;
12956;SDS011;6543;48.836;10.092;2022-12-18T03:55:55;32.90;;;16.53;;
12956;SDS011;6543;48.836;10.092;2022-12-18T03:58:24;35.70;;;17.50;;
12956;SDS011;6543;48.836;10.092;2022-12-18T04:00:53;20.73;;;9.30;;
12956;SDS011;6543;48.836;10.092;2022-12-18T04:03:23;30.00;;;16.23;;
12956;SDS011;6543;48.836;10.092;2022-12-18T04:05:51;26.77;;;12.77;;
12956;SDS011;6543;48.836;10.092;2022-12-18T04:08:20;33.67;;;16.23;;
12956;SDS011;6543;48.836;10.092;2022-12-18T04:10:48;25.00;;;12.70;;
12956;SDS011;6543;48.836;10.092;2022-12-18T04:13:21;32.50;;;16.87;;
12956;SDS011;6543;48.836;10.092;2022-12-18T04:15:48;31.47;;;15.90;;
12956;SDS011;6543;48.836;10.092;2022-12-18T04:18:16;31.23;;;13.77;;
12956;SDS011;6543;48.836;10.092;2022-12-18T04:20:43;37.40;;;17.60;;
12956;SDS011;6543;48.836;10.092;2022-12-18T04:23:10;33.77;;;17.47;;
12956;SDS011;6543;48.836;10.092;2022-12-18T04:25:37;34.70;;;19.13;;
12956;SDS011;6543;48.836;10.092;2022-12-18T04:28:04;28.83;;;13.97;;
12956;SDS011;6543;48.836;10.092;2022-12-18T04:30:31;37.33;;;17.97;;
12956;SDS011;6543;48.836;10.092;2022-12-18T04:32:58;35.50;;;15.23;;
12956;SDS011;6543;48.836;10.092;2022-12-18T04:35:26;20.47;;;9.47;;
12956;SDS011;6543;48.836;10.092;2022-12-18T04:37:53;40.53;;;18.63;;
12956;SDS011;6543;48.836;10.092;2022-12-18T04:40:19;33.73;;;17.70;;
12956;SDS011;6543;48.836;10.092;2022-12-18T04:42:46;29.17;;;15.83;;
12956;SDS011;6543;48.836;10.092;2022-12-18T04:45:13;31.87;;;15.20;;
12956;SDS011;6543;48.836;10.092;2022-12-18T04:47:40;47.30;;;21.90;;
12956;SDS011;6543;48.836;10.092;2022-12-18T04:50:07;35.83;;;16.67;;
12956;SDS011;6543;48.836;10.092;2022-12-18T04:52:35;34.77;;;17.90;;
12956;SDS011;6543;48.836;10.092;2022-12-18T04:55:02;43.10;;;15.80;;
12956;SDS011;6543;48.836;10.092;2022-12-18T04:57:29;32.83;;;16.80;;
12956;SDS011;6543;48.836;10.092;2022-12-18T04:59:56;32.90;;;17.90;;
12956;SDS011;6543;48.836;10.092;2022-12-18T05:02:23;31.43;;;15.73;;
12956;SDS011;6543;48.836;10.092;2022-12-18T05:04:49;19.33;;;9.90;;
12956;SDS011;6543;48.836;10.092;2022-12-18T05:07:16;24.93;;;13.03;;
12956;SDS011;6543;48.836;10.092;2022-12-18T05:09:44;41.03;;;19.20;;
12956;SDS011;6543;48.836;10.092;2022-12-18T05:12:11;33.20;;;14.50;;
12956;SDS011;6543;48.836;10.092;2022-12-18T05:14:38;25.33;;;12.83;;
12956;SDS011;6543;48.836;10.092;2022-12-18T05:17:05;30.23;;;15.90;;
12956;SDS011;6543;48.836;10.092;2022-12-18T05:19:32;29.23;;;12.50;;
12956;SDS011;6543;48.836;10.092;2022-12-18T05:21:59;37.37;;;19.67;;
12956;SDS011;6543;48.836;10.092;2022-12-18T05:24:26;38.87;;;19.03;;
12956;SDS011;6543;48.836;10.092;2022-12-18T05:26:54;39.47;;;18.97;;
12956;SDS011;6543;48.836;10.092;2022-12-18T05:29:21;37.37;;;17.33;;
12956;SDS011;6543;48.836;10.092;2022-12-18T05:31:48;46.30;;;20.13;;
12956;SDS011;6543;48.836;10.092;2022-12-18T05:34:15;35.73;;;16.40;;
12956;SDS011;6543;48.836;10.092;2022-12-18T05:36:42;42.07;;;21.17;;
12956;SDS011;6543;48.836;10.092;2022-12-18T05:39:08;38.67;;;19.87;;
12956;SDS011;6543;48.836;10.092;2022-12-18T05:41:35;35.97;;;17.80;;
12956;SDS011;6543;48.836;10.092;2022-12-18T05:44:04;44.80;;;22.23;;
12956;SDS011;6543;48.836;10.092;2022-12-18T05:46:30;37.17;;;18.57;;
12956;SDS011;6543;48.836;10.092;2022-12-18T05:48:58;31.20;;;16.67;;
12956;SDS011;6543;48.836;10.092;2022-12-18T05:51:26;30.80;;;14.50;;
12956;SDS011;6543;48.836;10.092;2022-12-18T05:53:54;38.53;;;18.93;;
12956;SDS011;6543;48.836;10.092;2022-12-18T05:56:21;37.03;;;16.57;;
12956;SDS011;6543;48.836;10.092;2022-12-18T05:58:51;26.43;;;11.47;;
12956;SDS011;6543;48.836;10.092;2022-12-18T06:01:20;35.83;;;19.50;;
12956;SDS011;6543;48.836;10.092;2022-12-18T06:03:48;32.00;;;15.57;;
12956;SDS011;6543;48.836;10.092;2022-12-18T06:06:16;40.97;;;19.80;;
12956;SDS011;6543;48.836;10.092;2022-12-18T06:08:44;35.23;;;17.60;;
12956;SDS011;6543;48.836;10.092;2022-12-18T06:11:11;31.83;;;14.03;;
12956;SDS011;6543;48.836;10.092;2022-12-18T06:13:38;33.40;;;17.10;;
12956;SDS011;6543;48.836;10.092;2022-12-18T06:16:05;33.83;;;19.23;;
12956;SDS011;6543;48.836;10.092;2022-12-18T06:18:35;34.47;;;16.37;;
12956;SDS011;6543;48.836;10.092;2022-12-18T06:21:04;25.23;;;13.07;;
12956;SDS011;6543;48.836;10.092;2022-12-18T06:23:31;30.60;;;14.30;;
12956;SDS011;6543;48.836;10.092;2022-12-18T06:25:58;30.00;;;15.60;;
12956;SDS011;6543;48.836;10.092;2022-12-18T06:28:29;23.20;;;11.50;;
12956;SDS011;6543;48.836;10.092;2022-12-18T06:30:56;34.17;;;15.40;;
12956;SDS011;6543;48.836;10.092;2022-12-18T06:33:25;28.40;;;13.17;;
12956;SDS011;6543;48.836;10.092;2022-12-18T06:35:54;27.83;;;13.00;;
12956;SDS011;6543;48.836;10.092;2022-12-18T06:38:20;28.73;;;14.30;;
12956;SDS011;6543;48.836;10.092;2022-12-18T06:40:47;43.43;;;22.80;;
12956;SDS011;6543;48.836;10.092;2022-12-18T06:43:14;30.23;;;16.50;;
12956;SDS011;6543;48.836;10.092;2022-12-18T06:45:41;25.67;;;13.47;;
12956;SDS011;6543;48.836;10.092;2022-12-18T06:48:08;34.83;;;13.97;;
12956;SDS011;6543;48.836;10.092;2022-12-18T06:50:34;43.00;;;20.33;;
12956;SDS011;6543;48.836;10.092;2022-12-18T06:53:03;30.10;;;13.77;;
12956;SDS011;6543;48.836;10.092;2022-12-18T06:55:29;40.27;;;17.80;;
12956;SDS011;6543;48.836;10.092;2022-12-18T06:57:56;27.13;;;14.40;;
12956;SDS011;6543;48.836;10.092;2022-12-18T07:00:23;39.07;;;18.20;;
12956;SDS011;6543;48.836;10.092;2022-12-18T07:02:50;36.70;;;17.63;;
12956;SDS011;6543;48.836;10.092;2022-12-18T07:05:16;29.23;;;14.30;;
12956;SDS011;6543;48.836;10.092;2022-12-18T07:07:43;36.90;;;18.57;;
12956;SDS011;6543;48.836;10.092;2022-12-18T07:10:11;27.73;;;11.67;;
12956;SDS011;6543;48.836;10.092;2022-12-18T07:12:38;28.57;;;13.00;;
12956;SDS011;6543;48.836;10.092;2022-12-18T07:15:06;39.33;;;17.43;;
12956;SDS011;6543;48.836;10.092;2022-12-18T07:17:33;58.67;;;25.00;;
12956;SDS011;6543;48.836;10.092;2022-12-18T07:20:00;37.83;;;17.13;;
12956;SDS011;6543;48.836;10.092;2022-12-18T07:22:27;42.23;;;20.63;;
12956;SDS011;6543;48.836;10.092;2022-12-18T07:24:54;34.27;;;14.63;;
12956;SDS011;6543;48.836;10.092;2022-12-18T07:27:22;41.23;;;18.27;;
12956;SDS011;6543;48.836;10.092;2022-12-18T07:29:49;38.77;;;19.70;;
12956;SDS011;6543;48.836;10.092;2022-12-18T07:32:16;32.90;;;15.00;;
12956;SDS011;6543;48.836;10.092;2022-12-18T07:34:43;36.87;;;17.40;;
12956;SDS011;6543;48.836;10.092;2022-12-18T07:37:10;49.03;;;21.17;;
12956;SDS011;6543;48.836;10.092;2022-12-18T07:39:36;45.30;;;19.33;;
12956;SDS011;6543;48.836;10.092;2022-12-18T07:42:03;53.53;;;22.63;;
12956;SDS011;6543;48.836;10.092;2022-12-18T07:44:49;48.80;;;20.20;;
12956;SDS011;6543;48.836;10.092;2022-12-18T07:47:16;39.53;;;19.27;;
12956;SDS011;6543;48.836;10.092;2022-12-18T07:49:43;35.97;;;16.13;;
12956;SDS011;6543;48.836;10.092;2022-12-18T07:52:09;25.20;;;12.30;;
12956;SDS011;6543;48.836;10.092;2022-12-18T07:54:37;41.20;;;19.67;;
12956;SDS011;6543;48.836;10.092;2022-12-18T07:57:05;47.53;;;20.70;;
12956;SDS011;6543;48.836;10.092;2022-12-18T07:59:32;29.27;;;13.87;;
12956;SDS011;6543;48.836;10.092;2022-12-18T08:02:00;41.73;;;18.90;;
12956;SDS011;6543;48.836;10.092;2022-12-18T08:04:27;32.00;;;16.17;;
12956;SDS011;6543;48.836;10.092;2022-12-18T08:06:54;40.23;;;19.90;;
12956;SDS011;6543;48.836;10.092;2022-12-18T08:09:20;33.93;;;15.70;;
12956;SDS011;6543;48.836;10.092;2022-12-18T08:11:47;44.87;;;20.93;;
12956;SDS011;6543;48.836;10.092;2022-12-18T08:14:14;33.23;;;14.27;;
12956;SDS011;6543;48.836;10.092;2022-12-18T08:16:41;40.67;;;20.27;;
12956;SDS011;6543;48.836;10.092;2022-12-18T08:19:10;42.53;;;20.90;;
12956;SDS011;6543;48.836;10.092;2022-12-18T08:21:37;27.50;;;13.73;;
12956;SDS011;6543;48.836;10.092;2022-12-18T08:26:37;27.30;;;14.50;;
12956;SDS011;6543;48.836;10.092;2022-12-18T08:29:03;27.67;;;13.60;;
12956;SDS011;6543;48.836;10.092;2022-12-18T08:31:30;38.67;;;19.67;;
12956;SDS011;6543;48.836;10.092;2022-12-18T08:33:57;34.33;;;15.10;;
12956;SDS011;6543;48.836;10.092;2022-12-18T08:36:26;48.07;;;22.03;;
12956;SDS011;6543;48.836;10.092;2022-12-18T08:38:53;35.00;;;15.27;;
12956;SDS011;6543;48.836;10.092;2022-12-18T08:41:20;32.43;;;14.33;;
12956;SDS011;6543;48.836;10.092;2022-12-18T08:43:47;38.40;;;20.80;;
12956;SDS011;6543;48.836;10.092;2022-12-18T08:46:32;33.73;;;17.27;;
12956;SDS011;6543;48.836;10.092;2022-12-18T08:49:01;32.93;;;18.07;;
12956;SDS011;6543;48.836;10.092;2022-12-18T08:51:30;32.90;;;15.80;;
12956;SDS011;6543;48.836;10.092;2022-12-18T08:53:57;28.20;;;12.90;;
12956;SDS011;6543;48.836;10.092;2022-12-18T08:56:24;33.83;;;17.53;;
12956;SDS011;6543;48.836;10.092;2022-12-18T08:58:51;38.60;;;19.97;;
12956;SDS011;6543;48.836;10.092;2022-12-18T09:01:19;45.40;;;20.43;;
12956;SDS011;6543;48.836;10.092;2022-12-18T09:03:46;35.80;;;17.07;;
12956;SDS011;6543;48.836;10.092;2022-12-18T09:06:13;29.93;;;16.13;;
12956;SDS011;6543;48.836;10.092;2022-12-18T09:08:43;34.63;;;18.23;;
12956;SDS011;6543;48.836;10.092;2022-12-18T09:11:14;30.37;;;13.90;;
12956;SDS011;6543;48.836;10.092;2022-12-18T09:13:44;35.23;;;16.57;;
12956;SDS011;6543;48.836;10.092;2022-12-18T09:16:11;34.50;;;18.93;;
12956;SDS011;6543;48.836;10.092;2022-12-18T09:18:38;28.07;;;13.23;;
12956;SDS011;6543;48.836;10.092;2022-12-18T09:21:09;27.63;;;15.30;;
12956;SDS011;6543;48.836;10.092;2022-12-18T09:23:36;29.23;;;15.07;;
12956;SDS011;6543;48.836;10.092;2022-12-18T09:26:05;28.13;;;13.40;;
12956;SDS011;6543;48.836;10.092;2022-12-18T09:28:31;30.90;;;14.93;;
12956;SDS011;6543;48.836;10.092;2022-12-18T09:30:58;36.70;;;14.93;;
12956;SDS011;6543;48.836;10.092;2022-12-18T09:33:29;35.00;;;18.23;;
12956;SDS011;6543;48.836;10.092;2022-12-18T09:35:56;31.20;;;16.33;;
12956;SDS011;6543;48.836;10.092;2022-12-18T09:38:23;26.40;;;12.63;;
12956;SDS011;6543;48.836;10.092;2022-12-18T09:40:51;30.40;;;14.93;;
12956;SDS011;6543;48.836;10.092;2022-12-18T09:43:24;35.90;;;16.93;;
12956;SDS011;6543;48.836;10.092;2022-12-18T09:45:55;33.30;;;17.10;;
12956;SDS011;6543;48.836;10.092;2022-12-18T09:48:25;26.80;;;15.30;;
12956;SDS011;6543;48.836;10.092;2022-12-18T09:50:58;29.23;;;14.33;;
12956;SDS011;6543;48.836;10.092;2022-12-18T09:53:30;29.83;;;13.70;;
12956;SDS011;6543;48.836;10.092;2022-12-18T09:56:00;27.13;;;13.60;;
12956;SDS011;6543;48.836;10.092;2022-12-18T09:58:31;30.57;;;15.67;;
12956;SDS011;6543;48.836;10.092;2022-12-18T10:01:06;22.73;;;12.67;;
12956;SDS011;6543;48.836;10.092;2022-12-18T10:03:36;32.33;;;16.77;;
12956;SDS011;6543;48.836;10.092;2022-12-18T10:06:05;25.80;;;13.33;;
12956;SDS011;6543;48.836;10.092;2022-12-18T10:08:40;32.10;;;15.67;;
12956;SDS011;6543;48.836;10.092;2022-12-18T10:11:21;39.03;;;18.20;;
12956;SDS011;6543;48.836;10.092;2022-12-18T10:13:57;31.80;;;17.80;;
12956;SDS011;6543;48.836;10.092;2022-12-18T10:16:34;26.70;;;13.20;;
12956;SDS011;6543;48.836;10.092;2022-12-18T10:19:10;30.80;;;13.53;;
12956;SDS011;6543;48.836;10.092;2022-12-18T10:21:48;30.00;;;15.00;;
12956;SDS011;6543;48.836;10.092;2022-12-18T10:24:23;25.40;;;12.97;;
12956;SDS011;6543;48.836;10.092;2022-12-18T10:26:58;38.93;;;18.97;;
12956;SDS011;6543;48.836;10.092;2022-12-18T10:29:36;29.80;;;13.83;;
12956;SDS011;6543;48.836;10.092;2022-12-18T10:32:03;30.37;;;15.47;;
12956;SDS011;6543;48.836;10.092;2022-12-18T10:34:30;30.30;;;13.90;;
12956;SDS011;6543;48.836;10.092;2022-12-18T10:36:57;31.77;;;17.00;;
12956;SDS011;6543;48.836;10.092;2022-12-18T10:39:26;21.10;;;10.13;;
12956;SDS011;6543;48.836;10.092;2022-12-18T10:41:56;22.50;;;11.80;;
12956;SDS011;6543;48.836;10.092;2022-12-18T10:44:39;23.27;;;12.30;;
12956;SDS011;6543;48.836;10.092;2022-12-18T10:47:09;21.27;;;10.40;;
12956;SDS011;6543;48.836;10.092;2022-12-18T10:49:41;26.97;;;12.90;;
12956;SDS011;6543;48.836;10.092;2022-12-18T10:52:14;27.83;;;13.77;;
12956;SDS011;6543;48.836;10.092;2022-12-18T10:54:47;26.97;;;15.13;;
12956;SDS011;6543;48.836;10.092;2022-12-18T10:57:17;27.63;;;14.30;;
12956;SDS011;6543;48.836;10.092;2022-12-18T10:59:57;19.17;;;9.77;;
12956;SDS011;6543;48.836;10.092;2022-12-18T11:02:44;30.40;;;16.50;;
12956;SDS011;6543;48.836;10.092;2022-12-18T11:05:22;21.77;;;10.90;;
12956;SDS011;6543;48.836;10.092;2022-12-18T11:07:51;27.50;;;15.60;;
12956;SDS011;6543;48.836;10.092;2022-12-18T11:10:19;26.70;;;13.93;;
12956;SDS011;6543;48.836;10.092;2022-12-18T11:12:48;28.40;;;14.30;;
12956;SDS011;6543;48.836;10.092;2022-12-18T11:15:16;34.03;;;17.13;;
12956;SDS011;6543;48.836;10.092;2022-12-18T11:17:47;27.07;;;13.33;;
12956;SDS011;6543;48.836;10.092;2022-12-18T11:20:20;31.00;;;15.53;;
12956;SDS011;6543;48.836;10.092;2022-12-18T11:22:54;32.87;;;15.17;;
12956;SDS011;6543;48.836;10.092;2022-12-18T11:25:23;31.43;;;15.93;;
12956;SDS011;6543;48.836;10.092;2022-12-18T11:27:58;33.47;;;17.33;;
12956;SDS011;6543;48.836;10.092;2022-12-18T11:30:29;22.73;;;11.80;;
12956;SDS011;6543;48.836;10.092;2022-12-18T11:32:59;22.20;;;10.83;;
12956;SDS011;6543;48.836;10.092;2022-12-18T11:38:18;32.10;;;18.43;;
12956;SDS011;6543;48.836;10.092;2022-12-18T11:40:50;33.33;;;17.30;;
12956;SDS011;6543;48.836;10.092;2022-12-18T11:43:22;25.50;;;13.63;;
12956;SDS011;6543;48.836;10.092;2022-12-18T11:45:55;26.57;;;13.07;;
12956;SDS011;6543;48.836;10.092;2022-12-18T11:48:27;24.63;;;12.67;;
12956;SDS011;6543;48.836;10.092;2022-12-18T11:50:59;29.27;;;14.43;;
12956;SDS011;6543;48.836;10.092;2022-12-18T11:53:29;23.73;;;13.57;;
12956;SDS011;6543;48.836;10.092;2022-12-18T11:56:00;32.03;;;17.37;;
12956;SDS011;6543;48.836;10.092;2022-12-18T11:58:40;28.47;;;14.70;;
12956;SDS011;6543;48.836;10.092;2022-12-18T12:01:15;32.33;;;17.47;;
12956;SDS011;6543;48.836;10.092;2022-12-18T12:04:08;32.07;;;20.33;;
12956;SDS011;6543;48.836;10.092;2022-12-18T12:06:55;37.47;;;18.07;;
12956;SDS011;6543;48.836;10.092;2022-12-18T12:09:31;35.87;;;19.37;;
12956;SDS011;6543;48.836;10.092;2022-12-18T12:12:11;25.20;;;14.10;;
12956;SDS011;6543;48.836;10.092;2022-12-18T12:14:52;50.27;;;20.73;;
12956;SDS011;6543;48.836;10.092;2022-12-18T12:17:32;38.67;;;20.13;;
12956;SDS011;6543;48.836;10.092;2022-12-18T12:20:06;26.10;;;13.23;;
12956;SDS011;6543;48.836;10.092;2022-12-18T12:22:41;34.07;;;17.83;;
12956;SDS011;6543;48.836;10.092;2022-12-18T12:25:17;37.40;;;18.30;;
12956;SDS011;6543;48.836;10.092;2022-12-18T12:27:53;25.23;;;13.67;;
12956;SDS011;6543;48.836;10.092;2022-12-18T12:30:30;28.73;;;16.50;;
12956;SDS011;6543;48.836;10.092;2022-12-18T12:33:10;33.60;;;18.37;;
12956;SDS011;6543;48.836;10.092;2022-12-18T12:35:51;36.70;;;18.97;;
12956;SDS011;6543;48.836;10.092;2022-12-18T12:38:27;36.63;;;18.90;;
12956;SDS011;6543;48.836;10.092;2022-12-18T12:40:58;38.30;;;18.70;;
12956;SDS011;6543;48.836;10.092;2022-12-18T12:43:31;28.83;;;14.80;;
12956;SDS011;6543;48.836;10.092;2022-12-18T12:46:02;28.60;;;15.83;;
12956;SDS011;6543;48.836;10.092;2022-12-18T12:48:34;32.90;;;18.73;;
12956;SDS011;6543;48.836;10.092;2022-12-18T12:51:07;35.07;;;19.53;;
12956;SDS011;6543;48.836;10.092;2022-12-18T12:53:37;33.33;;;17.07;;
12956;SDS011;6543;48.836;10.092;2022-12-18T12:56:06;33.40;;;18.53;;
12956;SDS011;6543;48.836;10.092;2022-12-18T12:58:36;36.93;;;18.30;;
12956;SDS011;6543;48.836;10.092;2022-12-18T13:01:14;32.90;;;18.13;;
12956;SDS011;6543;48.836;10.092;2022-12-18T13:03:54;30.17;;;15.80;;
12956;SDS011;6543;48.836;10.092;2022-12-18T13:06:35;30.87;;;15.57;;
12956;SDS011;6543;48.836;10.092;2022-12-18T13:09:06;36.83;;;18.40;;
12956;SDS011;6543;48.836;10.092;2022-12-18T13:11:37;38.37;;;20.73;;
12956;SDS011;6543;48.836;10.092;2022-12-18T13:14:24;38.37;;;21.37;;
12956;SDS011;6543;48.836;10.092;2022-12-18T13:19:44;40.40;;;21.10;;
12956;SDS011;6543;48.836;10.092;2022-12-18T13:22:21;40.33;;;20.10;;
12956;SDS011;6543;48.836;10.092;2022-12-18T13:24:49;38.23;;;20.47;;
12956;SDS011;6543;48.836;10.092;2022-12-18T13:36:12;29.77;;;13.37;;
12956;SDS011;6543;48.836;10.092;2022-12-18T13:39:21;26.90;;;13.20;;
12956;SDS011;6543;48.836;10.092;2022-12-18T13:48:26;30.03;;;16.23;;
12956;SDS011;6543;48.836;10.092;2022-12-18T13:50:57;41.67;;;21.03;;
12956;SDS011;6543;48.836;10.092;2022-12-18T13:53:29;33.10;;;17.27;;
12956;SDS011;6543;48.836;10.092;2022-12-18T13:56:00;38.00;;;20.80;;
12956;SDS011;6543;48.836;10.092;2022-12-18T13:58:27;33.37;;;17.07;;
12956;SDS011;6543;48.836;10.092;2022-12-18T14:00:54;37.80;;;21.33;;
12956;SDS011;6543;48.836;10.092;2022-12-18T14:03:22;40.40;;;20.60;;
12956;SDS011;6543;48.836;10.092;2022-12-18T14:05:52;43.70;;;21.43;;
12956;SDS011;6543;48.836;10.092;2022-12-18T14:08:22;35.57;;;20.80;;
12956;SDS011;6543;48.836;10.092;2022-12-18T14:10:53;35.90;;;20.27;;
12956;SDS011;6543;48.836;10.092;2022-12-18T14:13:23;32.93;;;17.13;;
12956;SDS011;6543;48.836;10.092;2022-12-18T14:15:54;30.43;;;15.70;;
12956;SDS011;6543;48.836;10.092;2022-12-18T14:18:23;29.57;;;16.37;;
12956;SDS011;6543;48.836;10.092;2022-12-18T14:20:51;36.43;;;19.33;;
12956;SDS011;6543;48.836;10.092;2022-12-18T14:23:27;34.03;;;19.27;;
12956;SDS011;6543;48.836;10.092;2022-12-18T14:25:57;39.80;;;20.23;;
12956;SDS011;6543;48.836;10.092;2022-12-18T14:28:24;31.27;;;16.13;;
12956;SDS011;6543;48.836;10.092;2022-12-18T14:30:51;53.80;;;18.60;;
12956;SDS011;6543;48.836;10.092;2022-12-18T14:33:20;35.87;;;18.17;;
12956;SDS011;6543;48.836;10.092;2022-12-18T14:35:52;30.33;;;15.40;;
12956;SDS011;6543;48.836;10.092;2022-12-18T14:38:22;32.67;;;15.63;;
12956;SDS011;6543;48.836;10.092;2022-12-18T14:40:54;34.03;;;16.97;;
12956;SDS011;6543;48.836;10.092;2022-12-18T14:43:28;37.50;;;20.37;;
12956;SDS011;6543;48.836;10.092;2022-12-18T14:45:55;38.47;;;21.50;;
12956;SDS011;6543;48.836;10.092;2022-12-18T14:48:30;36.17;;;17.97;;
12956;SDS011;6543;48.836;10.092;2022-12-18T14:51:01;36.70;;;18.20;;
12956;SDS011;6543;48.836;10.092;2022-12-18T14:53:36;32.13;;;14.67;;
12956;SDS011;6543;48.836;10.092;2022-12-18T14:58:50;25.47;;;14.37;;
12956;SDS011;6543;48.836;10.092;2022-12-18T15:01:20;22.27;;;10.00;;
12956;SDS011;6543;48.836;10.092;2022-12-18T15:03:50;43.17;;;21.90;;